Time;durP1;ratioP1;P1;durP2;ratioP2;P2;SDS_P1;SDS_P2;PMS_P1;PMS_P2;Temp;Humidity;BMP_temperature;BMP_pressure;BME280_temperature;BME280_humidity;BME280_pressure;Samples;Min_cycle;Max_cycle;Signal;HPM_P1;HPM_P2
2021/05/30 00:01:49;;;;;;;;;;;;;;;10.38;78.73;98539.40;1655898;85;26000;-86
2021/05/30 00:04:15;;;;;;;;;;;;;;;10.38;78.78;98538.09;1658515;85;24408;-87
2021/05/30 00:06:48;;;;;;;;;;;;;;;10.36;78.83;98536.07;1655941;85;20298;-87
2021/05/30 00:09:14;;;;;;;;;;;;;;;10.37;78.87;98532.48;1661878;85;25170;-86
2021/05/30 00:15:03;;;;;;;;;;;;;;;10.36;78.97;98534.30;1600603;89;21170;-91
2021/05/30 00:17:30;;;;;;;;;;;;;;;10.36;79.04;98536.07;1635790;86;24783;-92
2021/05/30 00:23:28;;;;;;;;;;;;;;;10.37;79.14;98529.41;1630092;86;25915;-92
2021/05/30 00:26:31;;;;;;;;;;;;;;;10.38;79.20;98531.08;1692172;84;22098;-92
2021/05/30 00:29:19;;;;;;;;;;;;;;;10.42;79.26;98528.62;1702795;84;26010;-91
2021/05/30 00:35:01;;;;;;;;;;;;;;;10.49;79.40;98529.05;1695737;84;20303;-90
2021/05/30 00:37:30;;;;;;;;;;;;;;;10.51;79.43;98526.34;1697655;84;25054;-90
2021/05/30 00:39:57;;;;;;;;;;;;;;;10.54;79.49;98528.73;1698024;84;22009;-87
2021/05/30 00:42:23;;;;;;;;;;;;;;;10.55;79.52;98526.48;1701170;83;26032;-87
2021/05/30 00:44:48;;;;;;;;;;;;;;;10.60;79.56;98523.92;1696353;84;20411;-87
2021/05/30 00:47:14;;;;;;;;;;;;;;;10.67;79.63;98524.34;1701269;84;20745;-87
2021/05/30 00:49:41;;;;;;;;;;;;;;;10.68;79.68;98522.94;1700730;84;25054;-87
2021/05/30 00:52:09;;;;;;;;;;;;;;;10.68;79.71;98520.79;1673097;83;20787;-86
2021/05/30 00:54:39;;;;;;;;;;;;;;;10.62;79.72;98527.28;1692836;84;26114;-87
2021/05/30 00:57:11;;;;;;;;;;;;;;;10.63;79.75;98526.81;1690263;84;24494;-91
2021/05/30 00:59:38;;;;;;;;;;;;;;;10.62;79.78;98518.59;1689955;84;20206;-90
2021/05/30 01:02:04;;;;;;;;;;;;;;;10.64;79.81;98513.60;1686912;84;25014;-89
2021/05/30 01:04:30;;;;;;;;;;;;;;;10.63;79.84;98518.97;1664357;84;21978;-89
2021/05/30 01:06:58;;;;;;;;;;;;;;;10.62;79.87;98514.20;1672450;84;20961;-89
2021/05/30 01:09:26;;;;;;;;;;;;;;;10.59;79.90;98520.09;1696669;83;24406;-86
2021/05/30 01:11:53;;;;;;;;;;;;;;;10.68;79.94;98521.63;1695891;84;20548;-86
2021/05/30 01:14:19;;;;;;;;;;;;;;;10.71;80.00;98514.02;1663155;85;25073;-86
2021/05/30 01:16:45;;;;;;;;;;;;;;;10.75;80.03;98508.93;1673302;85;22003;-87
2021/05/30 01:19:12;;;;;;;;;;;;;;;10.82;80.07;98509.72;1704190;83;26003;-86
2021/05/30 01:21:39;;;;;;;;;;;;;;;10.90;80.12;98514.44;1692999;83;24423;-87
2021/05/30 01:24:12;;;;;;;;;;;;;;;10.96;80.14;98511.86;1700899;83;20581;-90
2021/05/30 01:26:41;;;;;;;;;;;;;;;10.97;80.16;98511.73;1657185;85;25074;-90
2021/05/30 01:29:09;;;;;;;;;;;;;;;10.97;80.19;98513.04;1666903;85;21932;-91
2021/05/30 01:31:35;;;;;;;;;;;;;;;11.02;80.20;98508.81;1677432;85;25789;-91
2021/05/30 01:34:01;;;;;;;;;;;;;;;11.10;80.21;98506.00;1687252;83;24749;-90
2021/05/30 01:36:28;;;;;;;;;;;;;;;11.13;80.21;98503.16;1672812;85;20280;-90
2021/05/30 01:38:54;;;;;;;;;;;;;;;11.09;80.20;98506.11;1671276;85;24949;-91
2021/05/30 01:41:20;;;;;;;;;;;;;;;11.03;80.17;98511.77;1672336;85;22101;-91
2021/05/30 01:43:49;;;;;;;;;;;;;;;10.92;80.17;98511.22;1665111;85;25902;-91
2021/05/30 01:49:31;;;;;;;;;;;;;;;10.84;80.12;98507.00;1695005;84;20222;-91
2021/05/30 01:52:00;;;;;;;;;;;;;;;10.85;80.12;98508.69;1661076;84;25037;-90
2021/05/30 01:54:27;;;;;;;;;;;;;;;10.78;80.14;98504.34;1660147;85;22678;-90
2021/05/30 01:56:56;;;;;;;;;;;;;;;10.80;80.15;98510.29;1667197;84;26015;-90
2021/05/30 01:59:22;;;;;;;;;;;;;;;10.83;80.18;98504.02;1651922;84;24445;-90
2021/05/30 02:01:49;;;;;;;;;;;;;;;10.77;80.22;98502.66;1678514;83;20201;-90
2021/05/30 02:04:16;;;;;;;;;;;;;;;10.77;80.23;98499.20;1665419;85;25069;-88
2021/05/30 02:06:42;;;;;;;;;;;;;;;10.76;80.25;98498.83;1649434;85;22179;-90
2021/05/30 02:09:10;;;;;;;;;;;;;;;10.74;80.30;98502.89;1652117;84;26075;-90
2021/05/30 02:11:37;;;;;;;;;;;;;;;10.74;80.32;98496.81;1661898;85;24552;-90
2021/05/30 02:14:04;;;;;;;;;;;;;;;10.74;80.34;98495.50;1668214;85;20340;-90
2021/05/30 02:16:31;;;;;;;;;;;;;;;10.76;80.37;98501.45;1665271;85;25092;-90
2021/05/30 02:18:57;;;;;;;;;;;;;;;10.70;80.37;98500.56;1663711;85;21972;-90
2021/05/30 02:21:24;;;;;;;;;;;;;;;10.70;80.41;98494.02;1665194;85;26661;-90
2021/05/30 02:23:50;;;;;;;;;;;;;;;10.68;80.44;98502.47;1665996;85;24642;-90
2021/05/30 02:26:16;;;;;;;;;;;;;;;10.57;80.49;98504.98;1663090;85;20577;-90
2021/05/30 02:28:42;;;;;;;;;;;;;;;10.28;80.50;98507.80;1663217;85;25063;-90
2021/05/30 02:34:42;;;;;;;;;;;;;;;9.91;80.38;98517.23;1662247;85;26718;-91
2021/05/30 02:37:13;;;;;;;;;;;;;;;9.78;80.32;98515.03;1664559;85;25129;-91
2021/05/30 02:39:45;;;;;;;;;;;;;;;9.76;80.29;98514.32;1656118;85;20234;-91
2021/05/30 02:42:12;;;;;;;;;;;;;;;9.72;80.34;98516.73;1661842;85;25046;-91
2021/05/30 02:44:40;;;;;;;;;;;;;;;9.74;80.37;98523.19;1659845;85;21959;-90
2021/05/30 02:47:07;;;;;;;;;;;;;;;9.74;80.42;98524.49;1663146;85;26519;-90
2021/05/30 02:49:34;;;;;;;;;;;;;;;9.74;80.48;98521.41;1685493;83;24385;-91
2021/05/30 02:52:01;;;;;;;;;;;;;;;9.71;80.51;98520.28;1696514;83;20453;-90
2021/05/30 02:54:32;;;;;;;;;;;;;;;9.72;80.56;98521.13;1667315;84;24994;-90
2021/05/30 03:00:09;;;;;;;;;;;;;;;9.68;80.66;98528.80;1653936;85;22604;-94
2021/05/30 03:06:08;;;;;;;;;;;;;;;9.64;80.74;98532.94;1631048;87;20288;-92
2021/05/30 03:08:34;;;;;;;;;;;;;;;9.66;80.82;98536.27;1642537;86;24952;-87
2021/05/30 03:11:00;;;;;;;;;;;;;;;9.65;80.89;98532.47;1655857;84;22737;-90
2021/05/30 03:13:26;;;;;;;;;;;;;;;9.61;80.97;98527.89;1620422;86;25948;-90
2021/05/30 03:15:52;;;;;;;;;;;;;;;9.62;81.01;98532.19;1624782;86;24717;-91
2021/05/30 03:18:19;;;;;;;;;;;;;;;9.63;81.05;98533.02;1661418;84;20268;-90
2021/05/30 03:20:46;;;;;;;;;;;;;;;9.63;81.09;98531.25;1655941;84;25583;-90
2021/05/30 03:23:12;;;;;;;;;;;;;;;9.67;81.15;98529.27;1636524;86;21949;-89
2021/05/30 03:25:38;;;;;;;;;;;;;;;9.75;81.20;98527.02;1661087;85;25936;-89
2021/05/30 03:28:04;;;;;;;;;;;;;;;9.87;81.28;98531.41;1663737;85;24478;-90
2021/05/30 03:30:31;;;;;;;;;;;;;;;9.94;81.36;98530.09;1622815;86;20672;-90
2021/05/30 03:32:57;;;;;;;;;;;;;;;10.02;81.41;98532.20;1663203;85;24972;-90
2021/05/30 03:35:23;;;;;;;;;;;;;;;10.21;81.50;98530.06;1657021;85;22086;-90
2021/05/30 03:37:50;;;;;;;;;;;;;;;10.37;81.58;98532.02;1650406;84;26062;-90
2021/05/30 03:40:29;;;;;;;;;;;;;;;10.51;81.63;98536.80;1656864;84;24525;-90
2021/05/30 03:42:53;;;;;;;;;;;;;;;10.65;81.69;98544.53;1661906;84;20223;-91
2021/05/30 03:45:20;;;;;;;;;;;;;;;10.70;81.72;98546.37;1655154;84;24998;-90
2021/05/30 03:47:47;;;;;;;;;;;;;;;10.73;81.74;98549.63;1636330;86;21956;-91
2021/05/30 03:50:13;;;;;;;;;;;;;;;10.86;81.74;98554.84;1663511;85;25904;-90
2021/05/30 03:52:39;;;;;;;;;;;;;;;10.89;81.74;98554.65;1628690;86;24471;-90
2021/05/30 03:55:06;;;;;;;;;;;;;;;10.93;81.72;98557.88;1646023;85;20300;-91
2021/05/30 03:57:35;;;;;;;;;;;;;;;10.89;81.69;98557.27;1668131;84;25746;-90
2021/05/30 04:02:52;;;;;;;;;;;;;;;10.84;81.62;98561.98;1688116;83;26066;-87
2021/05/30 04:08:50;;;;;;;;;;;;;;;10.90;81.55;98568.95;1731569;81;20289;-93
2021/05/30 04:11:16;;;;;;;;;;;;;;;10.91;81.52;98564.05;1724731;82;24936;-90
2021/05/30 04:13:42;;;;;;;;;;;;;;;10.96;81.53;98574.23;1698570;83;20915;-90
2021/05/30 04:16:08;;;;;;;;;;;;;;;10.91;81.52;98573.69;1690594;83;26092;-90
2021/05/30 04:18:37;;;;;;;;;;;;;;;10.88;81.50;98571.30;1686881;83;24502;-91
2021/05/30 04:21:04;;;;;;;;;;;;;;;10.87;81.50;98571.77;1691214;83;20302;-91
2021/05/30 04:23:31;;;;;;;;;;;;;;;10.76;81.47;98569.51;1696425;83;24990;-90
2021/05/30 04:25:58;;;;;;;;;;;;;;;10.69;81.45;98576.94;1698207;83;22135;-90
2021/05/30 04:28:27;;;;;;;;;;;;;;;10.66;81.41;98578.94;1658421;84;26009;-90
2021/05/30 04:30:55;;;;;;;;;;;;;;;10.60;81.41;98584.58;1683196;83;24422;-91
2021/05/30 04:33:27;;;;;;;;;;;;;;;10.53;81.40;98580.22;1688202;83;20265;-89
2021/05/30 04:35:53;;;;;;;;;;;;;;;10.41;81.40;98588.45;1684406;83;25038;-90
2021/05/30 04:38:20;;;;;;;;;;;;;;;10.28;81.38;98588.04;1691343;83;20288;-90
2021/05/30 04:40:47;;;;;;;;;;;;;;;10.20;81.38;98587.73;1685725;83;25967;-90
2021/05/30 04:43:18;;;;;;;;;;;;;;;10.21;81.39;98585.45;1678457;83;24568;-90
2021/05/30 04:45:45;;;;;;;;;;;;;;;10.26;81.42;98588.60;1682890;83;20309;-90
2021/05/30 04:48:11;;;;;;;;;;;;;;;10.31;81.47;98586.55;1686337;83;24927;-90
2021/05/30 04:50:38;;;;;;;;;;;;;;;10.34;81.54;98589.79;1677757;83;22204;-91
2021/05/30 04:53:06;;;;;;;;;;;;;;;10.32;81.61;98590.34;1682386;83;26661;-89
2021/05/30 04:55:34;;;;;;;;;;;;;;;10.32;81.66;98591.66;1710065;82;25240;-90
2021/05/30 04:58:02;;;;;;;;;;;;;;;10.24;81.68;98596.57;1711892;82;20262;-88
2021/05/30 05:00:28;;;;;;;;;;;;;;;10.17;81.71;98601.83;1687343;83;25011;-93
2021/05/30 05:02:54;;;;;;;;;;;;;;;10.12;81.71;98599.95;1692125;83;20315;-92
2021/05/30 05:05:28;;;;;;;;;;;;;;;10.18;81.75;98594.36;1708774;83;20830;-92
2021/05/30 05:07:54;;;;;;;;;;;;;;;10.20;81.80;98591.15;1702258;83;24454;-91
2021/05/30 05:10:34;;;;;;;;;;;;;;;10.24;81.84;98593.95;1712913;83;20583;-93
2021/05/30 05:16:19;;;;;;;;;;;;;;;10.42;81.98;98594.02;1707084;83;22651;-93
2021/05/30 05:18:45;;;;;;;;;;;;;;;10.47;82.06;98589.82;1702830;83;26006;-90
2021/05/30 05:21:11;;;;;;;;;;;;;;;10.56;82.12;98593.59;1706457;83;24661;-90
2021/05/30 05:23:37;;;;;;;;;;;;;;;10.56;82.20;98593.12;1703285;82;20293;-91
2021/05/30 05:26:04;;;;;;;;;;;;;;;10.49;82.22;98596.61;1702931;83;24970;-90
2021/05/30 05:28:37;;;;;;;;;;;;;;;10.58;82.24;98595.64;1704740;83;21814;-92
2021/05/30 05:31:10;;;;;;;;;;;;;;;10.69;82.28;98595.76;1702918;83;26485;-92
2021/05/30 05:33:37;;;;;;;;;;;;;;;10.86;82.37;98594.95;1703125;83;24496;-88
2021/05/30 05:36:03;;;;;;;;;;;;;;;10.99;82.45;98603.28;1704995;83;20316;-87
2021/05/30 05:38:29;;;;;;;;;;;;;;;11.08;82.51;98603.48;1704404;83;25151;-91
2021/05/30 05:40:58;;;;;;;;;;;;;;;11.13;82.52;98604.00;1705230;83;21983;-91
2021/05/30 05:43:24;;;;;;;;;;;;;;;11.19;82.56;98605.35;1710822;83;26136;-90
2021/05/30 05:45:54;;;;;;;;;;;;;;;11.15;82.55;98607.36;1702166;83;20845;-93
2021/05/30 05:51:15;;;;;;;;;;;;;;;11.25;82.53;98615.41;1704161;83;25174;-89
2021/05/30 05:53:41;;;;;;;;;;;;;;;11.23;82.54;98612.08;1710905;82;21950;-90
2021/05/30 05:56:13;;;;;;;;;;;;;;;11.36;82.52;98611.57;1703648;83;25930;-92
2021/05/30 05:58:39;;;;;;;;;;;;;;;11.42;82.57;98612.45;1708940;83;24648;-90
2021/05/30 06:01:06;;;;;;;;;;;;;;;11.54;82.57;98616.84;1709835;83;20261;-90
2021/05/30 06:03:32;;;;;;;;;;;;;;;11.54;82.54;98626.48;1702674;84;25015;-90
2021/05/30 06:05:58;;;;;;;;;;;;;;;11.51;82.51;98624.09;1703505;83;20342;-91
2021/05/30 06:08:24;;;;;;;;;;;;;;;11.48;82.46;98629.06;1702229;84;25957;-90
2021/05/30 06:10:50;;;;;;;;;;;;;;;11.36;82.40;98637.77;1703468;84;25141;-90
2021/05/30 06:16:26;;;;;;;;;;;;;;;11.35;82.31;98635.28;1703544;84;21238;-90
2021/05/30 06:18:52;;;;;;;;;;;;;;;11.36;82.28;98640.86;1702443;84;20244;-87
2021/05/30 06:21:18;;;;;;;;;;;;;;;11.27;82.29;98635.80;1702947;83;21061;-87
2021/05/30 06:23:47;;;;;;;;;;;;;;;11.32;82.24;98646.33;1701785;84;24428;-90
2021/05/30 06:26:13;;;;;;;;;;;;;;;11.39;82.25;98644.59;1701443;84;20332;-89
2021/05/30 06:28:39;;;;;;;;;;;;;;;11.33;82.25;98649.79;1703509;84;25228;-90
2021/05/30 06:31:05;;;;;;;;;;;;;;;11.30;82.26;98648.20;1704049;83;20258;-90
2021/05/30 06:33:37;;;;;;;;;;;;;;;11.30;82.25;98648.20;1701811;83;21237;-91
2021/05/30 06:36:03;;;;;;;;;;;;;;;11.32;82.28;98652.04;1701521;83;24409;-91
2021/05/30 06:38:32;;;;;;;;;;;;;;;11.40;82.31;98651.52;1734971;81;20207;-91
2021/05/30 06:41:07;;;;;;;;;;;;;;;11.52;82.40;98651.48;1736122;81;24961;-91
2021/05/30 06:46:15;;;;;;;;;;;;;;;11.83;82.55;98656.75;1739568;81;25977;-90
2021/05/30 06:48:41;;;;;;;;;;;;;;;11.88;82.59;98651.17;1734294;81;20276;-90
2021/05/30 06:51:14;;;;;;;;;;;;;;;11.77;82.61;98653.25;1740829;81;20281;-90
2021/05/30 06:53:39;;;;;;;;;;;;;;;11.69;82.53;98654.22;1741638;81;25163;-90
2021/05/30 06:56:05;;;;;;;;;;;;;;;11.62;82.47;98664.30;1740304;81;20811;-86
2021/05/30 06:58:32;;;;;;;;;;;;;;;11.57;82.44;98661.16;1741455;81;26712;-89
2021/05/30 07:01:01;;;;;;;;;;;;;;;11.55;82.40;98662.23;1733721;81;25064;-87
2021/05/30 07:03:27;;;;;;;;;;;;;;;11.48;82.30;98660.98;1699654;82;20554;-87
2021/05/30 07:05:53;;;;;;;;;;;;;;;11.39;82.27;98659.84;1697716;83;25239;-90
2021/05/30 07:08:26;;;;;;;;;;;;;;;11.39;82.21;98653.77;1696137;84;21998;-91
2021/05/30 07:10:53;;;;;;;;;;;;;;;11.46;82.18;98660.23;1698065;83;26019;-91
2021/05/30 07:13:19;;;;;;;;;;;;;;;11.50;82.20;98659.09;1694097;82;24747;-87
2021/05/30 07:15:45;;;;;;;;;;;;;;;11.49;82.20;98663.97;1696550;83;20341;-90
2021/05/30 07:18:13;;;;;;;;;;;;;;;11.51;82.18;98663.40;1696047;83;25806;-90
2021/05/30 07:20:42;;;;;;;;;;;;;;;11.62;82.21;98665.61;1698821;82;22001;-91
2021/05/30 07:23:06;;;;;;;;;;;;;;;11.73;82.26;98666.19;1692153;82;26024;-90
2021/05/30 07:25:32;;;;;;;;;;;;;;;11.83;82.30;98662.00;1695014;84;20262;-90
2021/05/30 07:27:59;;;;;;;;;;;;;;;11.82;82.35;98667.34;1692446;84;20253;-88
2021/05/30 07:30:25;;;;;;;;;;;;;;;11.81;82.32;98673.53;1695038;82;24975;-89
2021/05/30 07:32:51;;;;;;;;;;;;;;;11.82;82.29;98667.34;1696615;83;22001;-89
2021/05/30 07:35:18;;;;;;;;;;;;;;;11.85;82.31;98665.80;1694702;84;21184;-89
2021/05/30 07:37:45;;;;;;;;;;;;;;;11.86;82.32;98671.41;1698322;84;24447;-91
2021/05/30 07:40:11;;;;;;;;;;;;;;;11.87;82.28;98672.63;1691094;84;20276;-88
2021/05/30 07:42:41;;;;;;;;;;;;;;;11.96;82.25;98671.12;1697725;82;24993;-91
2021/05/30 07:45:07;;;;;;;;;;;;;;;12.03;82.27;98673.67;1695510;83;20343;-88
2021/05/30 07:47:39;;;;;;;;;;;;;;;12.08;82.23;98673.70;1695200;84;26125;-90
2021/05/30 07:50:13;;;;;;;;;;;;;;;12.13;82.22;98676.83;1698238;84;24444;-89
2021/05/30 07:52:46;;;;;;;;;;;;;;;12.29;82.21;98671.30;1669995;84;20336;-89
2021/05/30 07:55:13;;;;;;;;;;;;;;;12.45;82.25;98668.39;1692751;83;24959;-89
2021/05/30 07:57:42;;;;;;;;;;;;;;;12.62;82.29;98667.98;1699648;83;21949;-90
2021/05/30 08:00:10;;;;;;;;;;;;;;;12.76;82.30;98669.59;1671889;85;25970;-88
2021/05/30 08:02:36;;;;;;;;;;;;;;;12.94;82.27;98671.66;1714940;81;24442;-91
2021/05/30 08:08:13;;;;;;;;;;;;;;;13.21;82.16;98677.95;1711711;83;21124;-90
2021/05/30 08:10:42;;;;;;;;;;;;;;;13.12;81.95;98679.13;1672470;85;21978;-90
2021/05/30 08:13:11;;;;;;;;;;;;;;;13.02;81.75;98683.38;1713785;83;25980;-88
2021/05/30 08:15:54;;;;;;;;;;;;;;;12.96;81.55;98687.31;1716783;83;25336;-90
2021/05/30 08:18:20;;;;;;;;;;;;;;;12.85;81.40;98692.06;1652958;86;20372;-91
2021/05/30 08:20:46;;;;;;;;;;;;;;;12.81;81.25;98688.47;1642529;86;25005;-89
2021/05/30 08:23:13;;;;;;;;;;;;;;;12.85;81.15;98689.91;1656000;85;22068;-91
2021/05/30 08:25:41;;;;;;;;;;;;;;;12.98;81.13;98686.73;1653843;86;26029;-91
2021/05/30 08:28:13;;;;;;;;;;;;;;;13.00;81.13;98671.20;1620778;87;24460;-92
2021/05/30 08:30:39;;;;;;;;;;;;;;;13.19;81.13;98691.70;1652945;85;20552;-92
2021/05/30 08:33:05;;;;;;;;;;;;;;;13.24;81.10;98693.97;1634003;86;25061;-91
2021/05/30 08:35:32;;;;;;;;;;;;;;;13.18;81.04;98690.02;1695969;83;22805;-89
2021/05/30 08:37:58;;;;;;;;;;;;;;;13.16;80.99;98690.60;1655962;86;25938;-91
2021/05/30 08:40:24;;;;;;;;;;;;;;;13.20;80.94;98691.23;1701031;83;24493;-91
2021/05/30 08:42:52;;;;;;;;;;;;;;;13.15;80.85;98692.02;1671873;85;20287;-91
2021/05/30 08:45:26;;;;;;;;;;;;;;;13.07;80.76;98691.75;1716649;83;24997;-93
2021/05/30 08:47:54;;;;;;;;;;;;;;;13.02;80.65;98692.11;1711448;83;22125;-91
2021/05/30 08:50:20;;;;;;;;;;;;;;;12.94;80.50;98695.30;1713641;83;25494;-89
2021/05/30 08:52:55;;;;;;;;;;;;;;;12.89;80.37;98697.44;1717816;83;20344;-92
2021/05/30 08:55:31;;;;;;;;;;;;;;;12.98;80.29;98698.55;1710597;83;20563;-91
2021/05/30 08:58:00;;;;;;;;;;;;;;;13.13;80.29;98697.89;1700525;83;25052;-89
2021/05/30 09:00:36;;;;;;;;;;;;;;;13.28;80.29;98694.93;1703625;84;22016;-91
2021/05/30 09:06:16;;;;;;;;;;;;;;;13.53;80.27;98696.48;1670091;83;24534;-92
2021/05/30 09:08:44;;;;;;;;;;;;;;;13.86;80.37;98693.48;1651030;85;20379;-89
2021/05/30 09:11:11;;;;;;;;;;;;;;;14.00;80.40;98695.88;1664205;85;24991;-91
2021/05/30 09:14:01;;;;;;;;;;;;;;;13.96;80.28;98699.72;1691453;83;22064;-88
2021/05/30 09:19:50;;;;;;;;;;;;;;;13.76;79.93;98702.11;1698449;83;20588;-91
2021/05/30 09:22:36;;;;;;;;;;;;;;;13.57;79.63;98703.69;1688526;83;20228;-91
2021/05/30 09:25:13;;;;;;;;;;;;;;;13.45;79.42;98704.63;1689513;83;25675;-91
2021/05/30 09:27:47;;;;;;;;;;;;;;;13.40;79.28;98705.83;1699044;83;22226;-88
2021/05/30 09:33:35;;;;;;;;;;;;;;;13.31;78.99;98701.25;1695476;83;20534;-89
2021/05/30 09:36:03;;;;;;;;;;;;;;;13.30;78.80;98698.29;1692719;83;20251;-89
2021/05/30 09:38:32;;;;;;;;;;;;;;;13.42;78.71;98706.19;1692360;83;24981;-90
2021/05/30 09:41:28;;;;;;;;;;;;;;;13.57;78.70;98701.05;1701285;83;22099;-91
2021/05/30 09:43:59;;;;;;;;;;;;;;;13.69;78.68;98704.05;1693540;83;26667;-91
2021/05/30 09:46:32;;;;;;;;;;;;;;;13.80;78.63;98706.17;1690273;83;24531;-90
2021/05/30 09:49:03;;;;;;;;;;;;;;;13.86;78.57;98704.84;1689372;82;21518;-90
2021/05/30 09:51:31;;;;;;;;;;;;;;;13.89;78.52;98710.36;1684313;83;25159;-90
2021/05/30 09:54:01;;;;;;;;;;;;;;;13.77;78.41;98706.90;1696504;83;21949;-90
2021/05/30 09:56:40;;;;;;;;;;;;;;;13.57;78.28;98705.84;1695263;82;25489;-90
2021/05/30 09:59:08;;;;;;;;;;;;;;;13.32;78.10;98711.29;1686461;83;24630;-89
2021/05/30 10:01:48;;;;;;;;;;;;;;;13.19;77.97;98718.45;1686563;83;20711;-89
2021/05/30 10:04:16;;;;;;;;;;;;;;;13.10;77.85;98716.00;1692970;82;25065;-90
2021/05/30 10:06:46;;;;;;;;;;;;;;;13.01;77.77;98715.39;1695220;83;22659;-90
2021/05/30 10:09:14;;;;;;;;;;;;;;;12.95;77.62;98714.53;1697649;83;26193;-91
2021/05/30 10:11:44;;;;;;;;;;;;;;;13.00;77.59;98712.39;1667211;85;24499;-90
2021/05/30 10:14:10;;;;;;;;;;;;;;;13.05;77.58;98708.94;1670698;84;20280;-87
2021/05/30 10:16:39;;;;;;;;;;;;;;;13.00;77.57;98710.61;1670996;85;24957;-92
2021/05/30 10:19:08;;;;;;;;;;;;;;;12.90;77.52;98706.16;1669062;85;21983;-90
2021/05/30 10:21:36;;;;;;;;;;;;;;;12.89;77.46;98718.45;1698023;83;26536;-90
2021/05/30 10:24:05;;;;;;;;;;;;;;;12.92;77.42;98718.71;1696794;83;25217;-91
2021/05/30 10:26:33;;;;;;;;;;;;;;;12.99;77.42;98718.59;1674629;84;20329;-91
2021/05/30 10:29:13;;;;;;;;;;;;;;;13.02;77.37;98725.42;1675067;84;25841;-87
2021/05/30 10:31:39;;;;;;;;;;;;;;;13.06;77.34;98722.92;1671068;84;21437;-90
2021/05/30 10:34:13;;;;;;;;;;;;;;;13.12;77.30;98726.44;1674236;84;26059;-90
2021/05/30 10:36:41;;;;;;;;;;;;;;;13.12;77.26;98728.59;1674015;84;24429;-87
2021/05/30 10:39:26;;;;;;;;;;;;;;;13.11;77.21;98730.81;1711788;83;20261;-92
2021/05/30 10:42:12;;;;;;;;;;;;;;;13.11;77.16;98744.42;1692262;83;25151;-92
2021/05/30 10:44:49;;;;;;;;;;;;;;;13.05;77.11;98740.94;1694467;83;22267;-90
2021/05/30 10:47:16;;;;;;;;;;;;;;;13.00;76.98;98746.07;1676868;84;25966;-87
2021/05/30 10:50:01;;;;;;;;;;;;;;;12.91;76.91;98753.34;1674018;84;24431;-90
2021/05/30 10:52:34;;;;;;;;;;;;;;;12.87;76.84;98745.80;1675439;84;20358;-90
2021/05/30 10:55:17;;;;;;;;;;;;;;;12.85;76.81;98751.16;1670949;84;24955;-91
2021/05/30 10:57:46;;;;;;;;;;;;;;;12.93;76.85;98754.04;1669164;85;22813;-90
2021/05/30 11:00:14;;;;;;;;;;;;;;;13.03;76.88;98757.31;1701066;83;25941;-91
2021/05/30 11:02:58;;;;;;;;;;;;;;;13.20;76.98;98761.67;1669317;84;24388;-91
2021/05/30 11:05:41;;;;;;;;;;;;;;;13.34;77.08;98765.44;1670696;84;20368;-90
2021/05/30 11:08:32;;;;;;;;;;;;;;;13.41;77.09;98771.08;1711602;82;25028;-90
2021/05/30 11:11:00;;;;;;;;;;;;;;;13.57;77.10;98762.84;1701833;82;22134;-90
2021/05/30 11:13:32;;;;;;;;;;;;;;;13.76;77.14;98756.52;1686366;82;26657;-90
2021/05/30 11:15:59;;;;;;;;;;;;;;;13.85;77.12;98758.92;1700590;83;24717;-91
2021/05/30 11:18:25;;;;;;;;;;;;;;;13.89;77.08;98763.82;1706334;82;20661;-91
2021/05/30 11:20:55;;;;;;;;;;;;;;;13.92;77.00;98764.05;1682851;83;24878;-90
2021/05/30 11:23:21;;;;;;;;;;;;;;;13.96;76.93;98761.55;1671344;83;21524;-90
2021/05/30 11:25:53;;;;;;;;;;;;;;;14.01;76.88;98765.98;1667246;83;26023;-89
2021/05/30 11:28:21;;;;;;;;;;;;;;;14.08;76.80;98769.78;1703005;83;24979;-90
2021/05/30 11:30:54;;;;;;;;;;;;;;;14.17;76.77;98774.34;1695604;83;20284;-90
2021/05/30 11:33:25;;;;;;;;;;;;;;;14.10;76.62;98779.24;1667968;84;25059;-90
2021/05/30 11:35:55;;;;;;;;;;;;;;;14.01;76.42;98783.08;1706414;83;22703;-90
2021/05/30 11:38:35;;;;;;;;;;;;;;;13.95;76.24;98791.45;1706552;82;26054;-91
2021/05/30 11:41:20;;;;;;;;;;;;;;;13.83;76.08;98788.81;1710140;82;25170;-90
2021/05/30 11:43:53;;;;;;;;;;;;;;;13.61;75.86;98799.31;1685985;84;20284;-90
2021/05/30 11:46:20;;;;;;;;;;;;;;;13.39;75.73;98796.63;1705848;82;24952;-90
2021/05/30 11:49:03;;;;;;;;;;;;;;;13.22;75.61;98795.27;1705124;83;21985;-91
2021/05/30 11:51:31;;;;;;;;;;;;;;;13.09;75.59;98794.96;1705691;83;26695;-91
2021/05/30 11:54:03;;;;;;;;;;;;;;;13.05;75.59;98798.27;1694765;83;25019;-93
2021/05/30 11:56:30;;;;;;;;;;;;;;;13.08;75.65;98798.54;1701221;83;20318;-90
2021/05/30 11:58:57;;;;;;;;;;;;;;;13.14;75.74;98792.86;1713937;82;25944;-91
2021/05/30 12:01:42;;;;;;;;;;;;;;;13.24;75.87;98799.10;1709015;83;22134;-91
2021/05/30 12:04:24;;;;;;;;;;;;;;;13.33;76.00;98797.09;1710169;82;25789;-91
2021/05/30 12:06:51;;;;;;;;;;;;;;;13.49;76.12;98805.97;1699559;83;24503;-91
2021/05/30 12:09:17;;;;;;;;;;;;;;;13.51;76.23;98798.81;1699369;83;20209;-91
2021/05/30 12:11:44;;;;;;;;;;;;;;;13.51;76.28;98808.86;1690747;82;25099;-91
2021/05/30 12:14:10;;;;;;;;;;;;;;;13.50;76.31;98803.70;1696866;82;21969;-91
2021/05/30 12:16:45;;;;;;;;;;;;;;;13.56;76.34;98801.92;1695751;83;26186;-90
2021/05/30 12:19:23;;;;;;;;;;;;;;;13.55;76.41;98806.34;1697018;83;24506;-90
2021/05/30 12:21:49;;;;;;;;;;;;;;;13.49;76.40;98800.23;1701272;82;20336;-90
2021/05/30 12:24:18;;;;;;;;;;;;;;;13.49;76.46;98802.02;1657230;85;25185;-88
2021/05/30 12:26:46;;;;;;;;;;;;;;;13.44;76.50;98806.80;1702169;82;22141;-88
2021/05/30 12:29:15;;;;;;;;;;;;;;;13.44;76.47;98800.22;1698990;83;26024;-87
2021/05/30 12:31:56;;;;;;;;;;;;;;;13.57;76.51;98797.03;1696912;83;24534;-91
2021/05/30 12:37:59;;;;;;;;;;;;;;;14.02;76.76;98795.29;1643320;86;25053;-91
2021/05/30 12:43:38;;;;;;;;;;;;;;;14.26;76.83;98801.24;1702721;82;22986;-88
2021/05/30 12:46:35;;;;;;;;;;;;;;;14.24;76.71;98803.98;1694127;83;20268;-87
2021/05/30 12:49:12;;;;;;;;;;;;;;;14.38;76.66;98802.10;1726808;82;20310;-87
2021/05/30 12:51:38;;;;;;;;;;;;;;;14.48;76.68;98801.25;1729632;82;24988;-87
2021/05/30 12:54:20;;;;;;;;;;;;;;;14.61;76.67;98800.63;1728076;82;22061;-87
2021/05/30 12:56:48;;;;;;;;;;;;;;;14.80;76.67;98801.28;1724725;82;26891;-88
2021/05/30 12:59:34;;;;;;;;;;;;;;;15.01;76.69;98800.00;1725279;82;24485;-90
2021/05/30 13:02:34;;;;;;;;;;;;;;;15.09;76.59;98796.27;1729652;82;20299;-91
2021/05/30 13:05:15;;;;;;;;;;;;;;;15.18;76.48;98791.55;1725847;82;25554;-92
2021/05/30 13:07:41;;;;;;;;;;;;;;;15.21;76.36;98789.16;1725439;82;22180;-90
2021/05/30 13:10:13;;;;;;;;;;;;;;;15.19;76.19;98792.39;1726144;82;20843;-91
2021/05/30 13:12:49;;;;;;;;;;;;;;;15.07;75.99;98791.59;1725750;82;24412;-89
2021/05/30 13:15:22;;;;;;;;;;;;;;;15.00;75.78;98791.77;1727499;82;20355;-90
2021/05/30 13:17:58;;;;;;;;;;;;;;;15.04;75.62;98786.59;1724126;82;25146;-90
2021/05/30 13:20:28;;;;;;;;;;;;;;;14.92;75.39;98787.11;1715408;82;22033;-89
2021/05/30 13:23:13;;;;;;;;;;;;;;;14.88;75.21;98780.91;1717721;82;25940;-90
2021/05/30 13:25:51;;;;;;;;;;;;;;;14.97;75.13;98778.34;1721765;82;25262;-90
2021/05/30 13:28:27;;;;;;;;;;;;;;;15.17;75.09;98774.53;1710360;82;20418;-91
2021/05/30 13:31:04;;;;;;;;;;;;;;;15.23;74.96;98768.27;1721240;82;25043;-92
2021/05/30 13:33:32;;;;;;;;;;;;;;;15.21;74.81;98775.49;1726247;82;22086;-86
2021/05/30 13:36:19;;;;;;;;;;;;;;;15.18;74.60;98769.62;1730104;82;26026;-91
2021/05/30 13:38:48;;;;;;;;;;;;;;;15.23;74.52;98770.91;1722815;82;24437;-89
2021/05/30 13:41:15;;;;;;;;;;;;;;;15.23;74.33;98766.95;1720803;82;20296;-89
2021/05/30 13:43:42;;;;;;;;;;;;;;;15.09;74.16;98763.32;1694893;82;25016;-89
2021/05/30 13:46:08;;;;;;;;;;;;;;;14.96;73.96;98767.92;1718371;82;20264;-86
2021/05/30 13:48:35;;;;;;;;;;;;;;;14.93;73.85;98762.92;1729771;82;20847;-85
2021/05/30 13:51:01;;;;;;;;;;;;;;;14.86;73.74;98771.80;1701255;83;24612;-85
2021/05/30 13:53:28;;;;;;;;;;;;;;;14.88;73.66;98774.32;1711116;83;20260;-86
2021/05/30 13:55:58;;;;;;;;;;;;;;;14.84;73.62;98768.92;1705757;82;25072;-90
2021/05/30 13:58:26;;;;;;;;;;;;;;;14.79;73.54;98769.78;1707440;83;21864;-89
2021/05/30 14:00:52;;;;;;;;;;;;;;;14.77;73.47;98771.72;1708497;82;25990;-89
2021/05/30 14:03:24;;;;;;;;;;;;;;;14.79;73.41;98775.05;1709338;83;24494;-89